createdAt,value
2023-01-29T00:02:15.436Z,55.95
2023-01-29T00:05:27.988Z,56.19
2023-01-29T00:08:36.478Z,55.79
2023-01-29T00:11:45.913Z,55.94
2023-01-29T00:14:51.759Z,58.82
2023-01-29T00:17:58.264Z,56.54
2023-01-29T00:21:04.043Z,56.28
2023-01-29T00:24:11.363Z,57.05
2023-01-29T00:27:19.741Z,56.56
2023-01-29T00:30:28.947Z,55.96
2023-01-29T00:33:34.761Z,56.59
2023-01-29T00:36:41.540Z,56.76
2023-01-29T00:39:48.428Z,56.46
2023-01-29T00:43:10.108Z,56.45
2023-01-29T00:46:17.560Z,55.63
2023-01-29T00:49:24.669Z,56.55
2023-01-29T00:52:31.193Z,56.00
2023-01-29T00:55:37.867Z,55.97
2023-01-29T00:58:46.249Z,56.08
2023-01-29T01:02:05.303Z,55.86
2023-01-29T01:05:18.139Z,56.76
2023-01-29T01:08:37.289Z,56.22
2023-01-29T01:11:43.035Z,56.56
2023-01-29T01:14:52.654Z,56.83
2023-01-29T01:18:01.465Z,56.77
2023-01-29T01:21:09.238Z,56.59
2023-01-29T01:24:15.632Z,56.33
2023-01-29T01:27:22.877Z,55.97
2023-01-29T01:30:33.201Z,56.60
2023-01-29T01:33:40.693Z,56.31
2023-01-29T01:36:46.490Z,56.88
2023-01-29T01:39:57.964Z,55.44
2023-01-29T01:43:05.443Z,54.79
2023-01-29T01:46:15.226Z,54.79
2023-01-29T01:49:24.506Z,54.51
2023-01-29T01:52:35.259Z,54.20
2023-01-29T01:55:51.749Z,53.55
2023-01-29T01:59:02.368Z,53.04
2023-01-29T02:02:23.829Z,53.56
2023-01-29T02:05:46.095Z,53.27
2023-01-29T02:09:13.921Z,53.29
2023-01-29T02:12:22.865Z,51.92
2023-01-29T02:15:28.875Z,52.09
2023-01-29T02:18:39.673Z,51.87
2023-01-29T02:22:25.932Z,52.33
2023-01-29T02:26:13.456Z,52.14
2023-01-29T02:29:35.911Z,51.85
2023-01-29T02:32:58.872Z,52.02
2023-01-29T02:36:26.035Z,52.13
2023-01-29T02:39:42.444Z,50.52
2023-01-29T02:43:06.542Z,50.49
2023-01-29T02:46:31.831Z,49.49
2023-01-29T02:49:50.372Z,49.73
2023-01-29T02:53:09.597Z,49.77
2023-01-29T02:56:29.687Z,49.08
2023-01-29T02:59:48.027Z,49.23
2023-01-29T03:03:06.857Z,49.12
2023-01-29T03:06:24.399Z,48.84
2023-01-29T03:09:42.584Z,49.10
2023-01-29T03:12:59.954Z,48.89
2023-01-29T03:16:19.230Z,48.75
2023-01-29T03:19:40.010Z,48.26
2023-01-29T03:23:07.949Z,47.86
2023-01-29T03:26:33.728Z,47.24
2023-01-29T03:29:58.847Z,47.57
2023-01-29T03:33:23.766Z,48.52
2023-01-29T03:36:45.840Z,47.95
2023-01-29T03:39:55.752Z,48.11
2023-01-29T03:43:14.882Z,48.18
2023-01-29T03:46:34.332Z,47.62
2023-01-29T03:50:00.997Z,47.98
2023-01-29T03:53:24.074Z,48.10
2023-01-29T03:56:52.736Z,48.27
2023-01-29T04:00:17.495Z,48.28
2023-01-29T04:03:43.083Z,48.05
2023-01-29T04:06:56.916Z,48.11
2023-01-29T04:10:15.229Z,48.26
2023-01-29T04:13:22.828Z,47.88
2023-01-29T04:16:39.227Z,47.66
2023-01-29T04:19:54.855Z,48.08
2023-01-29T04:23:01.491Z,48.39
2023-01-29T04:26:42.139Z,48.59
2023-01-29T04:30:13.953Z,48.09
2023-01-29T04:33:40.209Z,49.32
2023-01-29T04:37:05.478Z,49.15
2023-01-29T04:40:27.219Z,47.76
2023-01-29T04:43:48.940Z,48.25
2023-01-29T04:47:15.829Z,48.20
2023-01-29T04:50:37.182Z,48.39
2023-01-29T04:54:03.096Z,48.39
2023-01-29T04:57:25.702Z,48.53
2023-01-29T05:00:45.299Z,48.87
2023-01-29T05:03:58.189Z,48.92
2023-01-29T05:07:09.969Z,48.64
2023-01-29T05:10:29.280Z,48.80
2023-01-29T05:13:45.103Z,48.64
2023-01-29T05:17:01.405Z,48.36
2023-01-29T05:20:09.071Z,48.11
2023-01-29T05:23:21.286Z,47.63
2023-01-29T05:26:39.857Z,47.86
2023-01-29T05:29:50.299Z,47.78
2023-01-29T05:32:58.658Z,48.11
2023-01-29T05:36:06.943Z,48.34
2023-01-29T05:39:12.852Z,48.80
2023-01-29T05:42:22.725Z,48.66
2023-01-29T05:45:29.050Z,49.02
2023-01-29T05:48:38.360Z,49.17
2023-01-29T05:51:44.306Z,47.92
2023-01-29T05:54:50.870Z,48.63
2023-01-29T05:57:56.635Z,48.87
2023-01-29T06:01:13.338Z,49.00
2023-01-29T06:04:22.205Z,48.98
2023-01-29T06:07:29.802Z,48.94
2023-01-29T06:10:36.276Z,49.00
2023-01-29T06:13:43.627Z,48.90
2023-01-29T06:16:49.559Z,48.91
2023-01-29T06:19:58.965Z,49.28
2023-01-29T06:23:05.151Z,49.49
2023-01-29T06:26:17.302Z,49.23
2023-01-29T06:29:23.086Z,49.06
2023-01-29T06:32:30.632Z,49.52
2023-01-29T06:35:39.145Z,49.58
2023-01-29T06:38:45.771Z,49.09
2023-01-29T06:41:51.767Z,49.28
2023-01-29T06:44:58.419Z,49.64
2023-01-29T06:48:04.124Z,49.69
2023-01-29T06:51:14.857Z,49.69
2023-01-29T06:54:20.650Z,49.79
2023-01-29T06:57:27.638Z,49.43
2023-01-29T07:00:33.645Z,49.71
2023-01-29T07:03:41.811Z,49.66
2023-01-29T07:06:50.250Z,49.97
2023-01-29T07:09:56.747Z,51.33
2023-01-29T07:13:03.175Z,54.39
2023-01-29T07:16:10.540Z,55.19
2023-01-29T07:19:16.549Z,55.71
2023-01-29T07:22:25.844Z,56.00
2023-01-29T07:25:31.713Z,56.41
2023-01-29T07:28:40.849Z,58.35
2023-01-29T07:31:46.855Z,59.03
2023-01-29T07:34:53.519Z,60.44
2023-01-29T07:38:02.107Z,60.15
2023-01-29T07:41:09.315Z,60.17
2023-01-29T07:44:18.273Z,60.32
2023-01-29T07:47:24.880Z,60.71
2023-01-29T07:50:31.404Z,60.85
2023-01-29T07:53:40.760Z,61.14
2023-01-29T07:56:46.610Z,61.47
2023-01-29T07:59:53.339Z,61.01
2023-01-29T08:03:07.026Z,61.43
2023-01-29T08:06:13.861Z,60.13
2023-01-29T08:09:22.339Z,59.56
2023-01-29T08:12:29.064Z,57.87
2023-01-29T08:15:39.215Z,58.73
2023-01-29T08:18:47.967Z,58.40
2023-01-29T08:21:53.709Z,58.48
2023-01-29T08:25:08.318Z,58.41
2023-01-29T08:28:14.944Z,57.36
2023-01-29T08:31:23.422Z,56.62
2023-01-29T08:34:29.272Z,57.18
2023-01-29T08:37:36.207Z,56.17
2023-01-29T08:40:47.415Z,56.12
2023-01-29T08:43:53.953Z,55.98
2023-01-29T08:46:59.785Z,54.98
2023-01-29T08:50:06.542Z,55.06
2023-01-29T08:53:13.146Z,54.80
2023-01-29T08:56:22.340Z,54.91
2023-01-29T08:59:28.283Z,54.89
2023-01-29T09:02:35.039Z,55.23
2023-01-29T09:05:43.310Z,56.40
2023-01-29T09:08:51.332Z,56.59
2023-01-29T09:11:59.923Z,55.52
2023-01-29T09:15:10.661Z,53.78
2023-01-29T09:18:25.058Z,52.39
2023-01-29T09:21:34.801Z,52.26
2023-01-29T09:24:40.626Z,51.71
2023-01-29T09:27:49.751Z,50.06
2023-01-29T09:30:55.741Z,50.96
2023-01-29T09:34:02.351Z,50.65
2023-01-29T09:37:08.323Z,51.02
2023-01-29T09:40:29.420Z,50.13
2023-01-29T09:43:52.203Z,50.28
2023-01-29T09:47:05.281Z,49.54
2023-01-29T09:50:21.359Z,49.21
2023-01-29T09:53:42.494Z,48.07
2023-01-29T09:56:51.374Z,47.47
2023-01-29T10:00:03.042Z,46.92
2023-01-29T10:03:38.990Z,46.84
2023-01-29T10:07:10.529Z,46.70
2023-01-29T10:10:46.494Z,46.75
2023-01-29T10:14:14.702Z,44.94
2023-01-29T10:17:53.319Z,45.04
2023-01-29T10:21:27.790Z,44.56
2023-01-29T10:24:44.724Z,44.02
2023-01-29T10:27:58.172Z,44.77
2023-01-29T10:31:18.812Z,44.94
2023-01-29T10:34:46.092Z,44.79
2023-01-29T10:37:56.885Z,45.00
2023-01-29T10:41:52.536Z,46.21
2023-01-29T10:45:29.141Z,44.87
2023-01-29T10:48:58.297Z,44.81
2023-01-29T10:52:29.269Z,45.71
2023-01-29T10:55:54.141Z,45.10
2023-01-29T10:59:08.105Z,44.98
2023-01-29T11:02:21.480Z,45.63
2023-01-29T11:05:37.550Z,45.67
2023-01-29T11:08:59.049Z,46.05
2023-01-29T11:12:13.633Z,45.81
2023-01-29T11:15:29.132Z,46.21
2023-01-29T11:18:57.733Z,46.34
2023-01-29T11:22:05.089Z,45.30
2023-01-29T11:25:21.764Z,45.31
2023-01-29T11:28:44.275Z,45.87
2023-01-29T11:31:51.256Z,45.08
2023-01-29T11:35:04.465Z,45.88
2023-01-29T11:38:22.527Z,45.99
2023-01-29T11:41:31.744Z,46.11
2023-01-29T11:44:44.991Z,46.06
2023-01-29T11:47:55.745Z,46.69
2023-01-29T11:51:06.481Z,45.93
2023-01-29T11:54:22.724Z,45.11
2023-01-29T11:57:38.887Z,44.59
2023-01-29T12:00:55.504Z,45.53
2023-01-29T12:04:02.877Z,45.09
2023-01-29T12:07:18.948Z,45.23
2023-01-29T12:10:37.320Z,44.43
2023-01-29T12:13:47.267Z,44.13
2023-01-29T12:17:04.413Z,44.73
2023-01-29T12:20:21.403Z,44.86
2023-01-29T12:23:41.848Z,43.54
2023-01-29T12:26:58.186Z,43.12
2023-01-29T12:30:22.577Z,42.88
2023-01-29T12:33:42.411Z,42.31
2023-01-29T12:36:59.639Z,42.23
2023-01-29T12:40:13.891Z,42.30
2023-01-29T12:43:25.453Z,41.83
2023-01-29T12:46:46.655Z,40.98
2023-01-29T12:50:04.829Z,40.12
2023-01-29T12:53:29.785Z,39.50
2023-01-29T12:56:42.493Z,39.05
2023-01-29T12:59:58.244Z,39.36
2023-01-29T13:03:24.081Z,39.80
2023-01-29T13:06:42.594Z,39.92
2023-01-29T13:10:00.439Z,39.93
2023-01-29T13:13:19.463Z,40.45
2023-01-29T13:16:34.626Z,40.94
2023-01-29T13:19:53.317Z,41.19
2023-01-29T13:23:13.307Z,41.80
2023-01-29T13:26:22.897Z,41.22
2023-01-29T13:29:33.292Z,41.27
2023-01-29T13:32:40.403Z,41.54
2023-01-29T13:35:50.135Z,41.37
2023-01-29T13:39:09.191Z,41.38
2023-01-29T13:42:24.146Z,42.12
2023-01-29T13:45:45.188Z,42.07
2023-01-29T13:48:58.362Z,41.92
2023-01-29T13:52:30.974Z,41.79
2023-01-29T13:55:40.690Z,42.60
2023-01-29T13:58:59.167Z,42.45
2023-01-29T14:02:22.135Z,42.69
2023-01-29T14:05:45.189Z,43.25
2023-01-29T14:08:53.635Z,43.41
2023-01-29T14:12:00.330Z,43.44
2023-01-29T14:15:30.862Z,43.21
2023-01-29T14:18:48.067Z,43.68
2023-01-29T14:21:54.437Z,44.04
2023-01-29T14:25:08.954Z,44.16
2023-01-29T14:28:33.889Z,44.21
2023-01-29T14:31:46.871Z,44.07
2023-01-29T14:35:02.773Z,44.20
2023-01-29T14:38:17.151Z,44.02
2023-01-29T14:41:34.392Z,44.41
2023-01-29T14:45:13.102Z,45.22
2023-01-29T14:48:41.754Z,44.78
2023-01-29T14:51:50.076Z,45.36
2023-01-29T14:55:04.548Z,45.63
2023-01-29T14:58:22.155Z,45.87
2023-01-29T15:01:37.221Z,46.32
2023-01-29T15:04:52.993Z,46.47
2023-01-29T15:08:09.468Z,46.93
2023-01-29T15:11:36.590Z,46.98
2023-01-29T15:14:58.748Z,47.11
2023-01-29T15:18:17.737Z,47.32
2023-01-29T15:21:23.941Z,47.40
2023-01-29T15:24:31.074Z,47.33
2023-01-29T15:27:38.321Z,47.65
2023-01-29T15:30:49.274Z,47.97
2023-01-29T15:34:00.443Z,47.72
2023-01-29T15:37:06.974Z,48.02
2023-01-29T15:40:22.092Z,48.14
2023-01-29T15:43:32.277Z,48.59
2023-01-29T15:46:45.594Z,48.54
2023-01-29T15:49:52.797Z,48.48
2023-01-29T15:53:15.239Z,48.93
2023-01-29T15:56:29.031Z,48.85
2023-01-29T15:59:51.858Z,49.04
2023-01-29T16:03:03.151Z,49.21
2023-01-29T16:06:12.285Z,49.31
2023-01-29T16:09:26.339Z,49.42
2023-01-29T16:12:32.371Z,49.84
2023-01-29T16:15:57.230Z,49.37
2023-01-29T16:19:17.329Z,49.35
2023-01-29T16:22:25.483Z,49.37
2023-01-29T16:25:34.180Z,49.17
2023-01-29T16:28:44.782Z,48.97
2023-01-29T16:32:00.666Z,49.26
2023-01-29T16:35:18.594Z,49.26
2023-01-29T16:38:35.311Z,49.89
2023-01-29T16:41:43.570Z,49.79
2023-01-29T16:44:54.467Z,49.72
2023-01-29T16:48:22.033Z,49.84
2023-01-29T16:51:34.668Z,49.76
2023-01-29T16:54:46.271Z,49.77
2023-01-29T16:57:57.755Z,49.45
2023-01-29T17:01:11.342Z,49.75
2023-01-29T17:04:21.770Z,50.01
2023-01-29T17:07:32.627Z,49.70
2023-01-29T17:10:38.911Z,49.74
2023-01-29T17:13:49.028Z,50.14
2023-01-29T17:16:59.601Z,50.41
2023-01-29T17:20:18.556Z,49.90
2023-01-29T17:23:26.951Z,50.34
2023-01-29T17:26:35.209Z,50.07
2023-01-29T17:29:41.781Z,50.41
2023-01-29T17:32:48.566Z,50.15
2023-01-29T17:35:57.080Z,50.34
2023-01-29T17:39:17.967Z,50.07
2023-01-29T17:42:23.637Z,50.05
2023-01-29T17:45:30.586Z,50.17
2023-01-29T17:48:36.394Z,50.20
2023-01-29T17:51:44.966Z,50.40
2023-01-29T17:54:53.328Z,50.44
2023-01-29T17:58:00.256Z,50.36
2023-01-29T18:01:06.123Z,50.21
2023-01-29T18:04:12.973Z,50.26
2023-01-29T18:07:18.930Z,50.44
2023-01-29T18:10:28.614Z,50.67
2023-01-29T18:13:36.308Z,50.76
2023-01-29T18:16:43.172Z,50.81
2023-01-29T18:19:51.207Z,51.09
2023-01-29T18:22:58.030Z,51.21
2023-01-29T18:26:07.945Z,51.62
2023-01-29T18:29:14.733Z,51.57
2023-01-29T18:32:20.534Z,51.83
2023-01-29T18:35:30.574Z,52.41
2023-01-29T18:38:36.600Z,52.26
2023-01-29T18:41:45.909Z,52.11
2023-01-29T18:44:52.030Z,51.95
2023-01-29T18:47:58.930Z,51.54
2023-01-29T18:51:05.057Z,51.77
2023-01-29T18:54:15.667Z,51.46
2023-01-29T18:58:29.356Z,51.57
2023-01-29T19:00:51.061Z,51.48
2023-01-29T19:03:59.365Z,51.89
2023-01-29T19:07:07.709Z,52.66
2023-01-29T19:10:17.274Z,52.33
2023-01-29T19:13:27.074Z,51.40
2023-01-29T19:16:33.086Z,51.32
2023-01-29T19:19:39.667Z,51.53
2023-01-29T19:22:45.631Z,51.73
2023-01-29T19:25:52.451Z,51.93
2023-01-29T19:29:01.178Z,51.51
2023-01-29T19:32:09.070Z,51.65
2023-01-29T19:35:15.134Z,51.83
2023-01-29T19:38:21.933Z,51.67
2023-01-29T19:41:28.007Z,52.23
2023-01-29T19:44:39.096Z,52.01
2023-01-29T19:47:46.778Z,51.95
2023-01-29T19:50:58.249Z,52.15
2023-01-29T19:54:04.336Z,51.83
2023-01-29T19:57:11.335Z,52.05
2023-01-29T20:00:24.035Z,51.75
2023-01-29T20:03:32.164Z,52.12
2023-01-29T20:06:38.242Z,52.24
2023-01-29T20:09:45.008Z,52.17
2023-01-29T20:12:51.004Z,51.92
2023-01-29T20:16:03.131Z,51.95
2023-01-29T20:19:14.269Z,51.75
2023-01-29T20:22:21.648Z,51.99
2023-01-29T20:25:27.616Z,51.97
2023-01-29T20:28:38.139Z,52.05
2023-01-29T20:31:53.899Z,52.38
2023-01-29T20:35:00.614Z,52.09
2023-01-29T20:38:08.372Z,52.26
2023-01-29T20:41:19.427Z,52.04
2023-01-29T20:44:25.389Z,52.17
2023-01-29T20:47:36.645Z,51.95
2023-01-29T20:50:44.266Z,52.15
2023-01-29T20:53:51.932Z,52.05
2023-01-29T20:56:58.119Z,51.84
2023-01-29T21:00:05.346Z,51.95
2023-01-29T21:03:14.160Z,51.85
2023-01-29T21:06:22.740Z,51.34
2023-01-29T21:09:28.615Z,51.71
2023-01-29T21:12:38.198Z,51.53
2023-01-29T21:15:46.995Z,52.08
2023-01-29T21:18:59.699Z,52.66
2023-01-29T21:22:07.118Z,52.51
2023-01-29T21:25:15.032Z,52.33
2023-01-29T21:28:22.177Z,52.77
2023-01-29T21:31:28.868Z,52.85
2023-01-29T21:34:37.599Z,52.40
2023-01-29T21:37:45.167Z,52.22
2023-01-29T21:40:51.263Z,52.34
2023-01-29T21:43:58.161Z,52.38
2023-01-29T21:47:12.564Z,52.59
2023-01-29T21:50:23.541Z,52.18
2023-01-29T21:53:29.757Z,52.33
2023-01-29T21:56:36.587Z,52.52
2023-01-29T21:59:42.510Z,52.15
2023-01-29T22:02:51.415Z,52.02
2023-01-29T22:06:00.011Z,52.62
2023-01-29T22:09:09.644Z,52.38
2023-01-29T22:12:15.617Z,52.11
2023-01-29T22:15:23.876Z,52.28
2023-01-29T22:18:30.570Z,51.60
2023-01-29T22:21:40.065Z,51.62
2023-01-29T22:24:46.804Z,51.70
2023-01-29T22:27:53.509Z,51.93
2023-01-29T22:31:04.827Z,51.71
2023-01-29T22:34:12.897Z,52.12
2023-01-29T22:37:21.406Z,52.92
2023-01-29T22:40:28.127Z,52.82
2023-01-29T22:43:34.171Z,52.25
2023-01-29T22:46:40.873Z,52.19
2023-01-29T22:49:50.193Z,52.80
2023-01-29T22:52:59.551Z,52.07
2023-01-29T22:56:05.526Z,52.16
2023-01-29T22:59:13.902Z,52.30
2023-01-29T23:02:19.696Z,51.93
2023-01-29T23:05:26.454Z,52.20
2023-01-29T23:08:36.254Z,52.15
2023-01-29T23:11:42.809Z,51.41
2023-01-29T23:14:48.711Z,51.68
2023-01-29T23:17:55.322Z,52.31
2023-01-29T23:21:01.274Z,51.55
2023-01-29T23:24:13.209Z,51.74
2023-01-29T23:27:19.183Z,51.60
2023-01-29T23:30:25.802Z,51.64
2023-01-29T23:33:31.909Z,51.37
2023-01-29T23:36:38.485Z,51.50
2023-01-29T23:39:46.909Z,51.36
2023-01-29T23:42:56.173Z,50.62
2023-01-29T23:46:02.514Z,50.49
2023-01-29T23:49:09.314Z,50.52
2023-01-29T23:52:15.186Z,50.42
2023-01-29T23:55:24.581Z,50.66
2023-01-29T23:58:31.903Z,50.98
